Odin, Minnesota
Current Conditions -  °F | °C
As of 10:35 AM on Tuesday 21 Oct 2014 (Local Time) from KJYG Reporting Station
Clear Clear  
Wind Chill: 52°   Ceiling: Unl
Heat Index: 52°   Visibility: NA
Dew Point: 43°   Wind: 8mph
Humidity: 71%   Direction: 120°ESE
Pressure: 30.16"   Gusts: NA
Location:  43.87°N, 94.74°W
Report Text: KJYG 211535Z AUTO 12007KT CLR 11/06 A3016 RMK AO2
Loading
Personal Weather Stations






























Interactive Weather Map
Tropical Storm Tracking
New forecast layout! Learn more

10-Day Weather Forecast

Advertisements
Track Severe Weather on mobile